< < Back
Terminal Aerodrome Forecast


Current Version              Previous Versions:   1  2  3  4  5  6  7  8  9  

Terminal Aerodrome Forecast

255
FTUS42 KFFC 221100
TAFPDK
TAF
KPDK 221131Z 2212/2312 35009KT P6SM SKC
     FM230100 00000KT P6SM SKC=



Latest METAR

734
SAUS70 KWBC 230200 RRE
MTRPDK
METAR KPDK 230153Z AUTO 33005KT 10SM CLR 11/06 A3010 RMK AO2 SLP196
T01110056


USA.gov is the U.S. government's official web portal to all federal, state and local government web resources and services.